KMAF

Midland International Airport

Airport
ICAO code
KMAF
Summary
ICAO Region
NAM
ICAO Territory
Location

Midland, Texas,

Coordinates
31° 56' 14" N , 102° 12' 28" W
KCC
Airport LOS
Parallel Runway Operation
Airport WX
Sand Storm
Metar
Observation
KMAF 070853Z AUTO 35003KT 10SM SCT070 OVC095 17/13 A3024 RMK AO2 SLP209 T01720128 56002
Station
Midland, Midland International Airport
Date/Time
2022-10-07 08:53:00
Wind direction
350°
Wind speed
03 kts
Lowest cloud amount
scattered clouds
Temperature
17.2°C
Dew point
12.8°C
Humidity
75%
Weather condition
n/a

Description

Midland International Airport is a public use airport located 15 km southwest of the central business district of Midland, a city in Midland County, Texas.

Climatology

Hot, semi-arid/Steppe climate (Köppen climate classification BSh) - hot, sometimes extremely hot summers and mild to warm winters, with low annual precipitation.

Runways

Designator Length Width Surface Rops
16L/34R 1323 30 ASP Yes/Yes
4/22 1404 23 ASP Yes/Yes
10/28 2530 46 ASP Yes/Yes
16R/34L 2896 46 ASP Yes/Yes

Airport map

Aerial View

SKYbrary Partners:

Safety knowledge contributed by: